createdAt,value
2019-03-12T00:00:15.360Z,2.17
2019-03-12T00:02:43.890Z,2.53
2019-03-12T00:05:12.591Z,2.30
2019-03-12T00:07:41.288Z,2.20
2019-03-12T00:10:09.780Z,2.37
2019-03-12T00:12:38.295Z,2.90
2019-03-12T00:15:07.687Z,2.83
2019-03-12T00:17:36.123Z,2.77
2019-03-12T00:20:06.487Z,2.10
2019-03-12T00:22:34.928Z,2.37
2019-03-12T00:25:03.354Z,2.47
2019-03-12T00:27:31.867Z,2.00
2019-03-12T00:30:00.546Z,1.93
2019-03-12T00:32:28.983Z,2.53
2019-03-12T00:34:57.398Z,3.20
2019-03-12T00:37:25.848Z,2.40
2019-03-12T00:39:54.266Z,2.77
2019-03-12T00:42:22.721Z,3.20
2019-03-12T00:44:51.503Z,2.60
2019-03-12T00:47:19.950Z,2.90
2019-03-12T00:49:48.378Z,3.37
2019-03-12T00:52:16.818Z,2.63
2019-03-12T00:54:45.272Z,2.97
2019-03-12T00:57:13.758Z,2.87
2019-03-12T00:59:42.187Z,3.27
2019-03-12T01:02:10.879Z,3.20
2019-03-12T01:04:39.306Z,2.87
2019-03-12T01:07:07.743Z,3.13
2019-03-12T01:09:36.167Z,3.40
2019-03-12T01:12:04.743Z,4.20
2019-03-12T01:14:33.435Z,3.70
2019-03-12T01:17:02.143Z,4.00
2019-03-12T01:19:30.562Z,4.63
2019-03-12T01:21:59.006Z,4.00
2019-03-12T01:24:27.687Z,4.30
2019-03-12T01:26:56.394Z,5.40
2019-03-12T01:29:24.818Z,4.67
2019-03-12T01:31:53.508Z,4.60
2019-03-12T01:34:21.932Z,4.67
2019-03-12T01:36:50.389Z,4.93
2019-03-12T01:39:18.806Z,4.20
2019-03-12T01:41:47.263Z,5.40
2019-03-12T01:44:15.939Z,5.70
2019-03-12T01:46:44.381Z,5.30
2019-03-12T01:49:12.799Z,5.07
2019-03-12T01:51:41.242Z,5.90
2019-03-12T01:54:09.923Z,5.37
2019-03-12T01:56:38.358Z,5.30
2019-03-12T01:59:07.124Z,5.87
2019-03-12T02:01:35.542Z,5.27
2019-03-12T02:04:04.047Z,5.67
2019-03-12T02:06:32.766Z,5.30
2019-03-12T02:09:01.192Z,5.30
2019-03-12T02:11:29.607Z,6.60
2019-03-12T02:13:58.047Z,5.40
2019-03-12T02:16:26.479Z,5.60
2019-03-12T02:18:55.178Z,6.10
2019-03-12T02:21:23.612Z,6.20
2019-03-12T02:23:52.314Z,6.10
2019-03-12T02:26:20.999Z,6.70
2019-03-12T02:28:49.702Z,7.80
2019-03-12T02:31:18.123Z,8.20
2019-03-12T02:33:46.824Z,7.70
2019-03-12T02:36:15.248Z,8.80
2019-03-12T02:38:43.678Z,9.43
2019-03-12T02:41:12.096Z,9.17
2019-03-12T02:43:40.815Z,8.97
2019-03-12T02:46:09.231Z,8.20
2019-03-12T02:48:37.935Z,9.20
2019-03-12T02:51:06.431Z,10.10
2019-03-12T02:53:34.886Z,9.77
2019-03-12T02:56:03.660Z,9.77
2019-03-12T02:58:32.094Z,9.83
2019-03-12T03:01:00.518Z,9.33
2019-03-12T03:03:29.210Z,9.60
2019-03-12T03:05:59.344Z,9.00
2019-03-12T03:08:29.424Z,8.80
2019-03-12T03:10:58.095Z,8.90
2019-03-12T03:13:26.606Z,8.23
2019-03-12T03:15:55.355Z,9.50
2019-03-12T03:18:23.797Z,8.50
2019-03-12T03:20:52.228Z,8.87
2019-03-12T03:23:21.021Z,9.30
2019-03-12T03:25:49.503Z,8.90
2019-03-12T03:28:17.963Z,7.77
2019-03-12T03:30:46.474Z,7.60
2019-03-12T03:33:14.964Z,8.43
2019-03-12T03:35:43.399Z,7.70
2019-03-12T03:38:11.930Z,7.50
2019-03-12T03:40:40.425Z,8.47
2019-03-12T03:43:08.867Z,7.37
2019-03-12T03:45:37.544Z,7.90
2019-03-12T03:48:05.984Z,7.50
2019-03-12T03:50:34.416Z,7.30
2019-03-12T03:53:02.851Z,6.47
2019-03-12T03:55:31.540Z,7.60
2019-03-12T03:58:00.052Z,6.87
2019-03-12T04:00:28.618Z,7.80
2019-03-12T04:02:57.320Z,7.20
2019-03-12T04:05:25.739Z,7.90
2019-03-12T04:07:54.179Z,6.27
2019-03-12T04:10:22.626Z,6.60
2019-03-12T04:12:51.405Z,5.70
2019-03-12T04:15:19.904Z,5.40
2019-03-12T04:17:48.331Z,5.63
2019-03-12T04:20:20.303Z,5.23
2019-03-12T04:22:48.941Z,5.37
2019-03-12T04:25:17.443Z,4.87
2019-03-12T04:27:45.868Z,4.90
2019-03-12T04:30:16.513Z,5.50
2019-03-12T04:32:45.202Z,4.97
2019-03-12T04:35:25.051Z,5.17
2019-03-12T04:37:53.542Z,5.03
2019-03-12T04:40:22.004Z,5.33
2019-03-12T04:42:50.496Z,4.80
2019-03-12T04:45:18.939Z,5.90
2019-03-12T04:47:47.359Z,5.70
2019-03-12T04:50:16.025Z,5.37
2019-03-12T04:52:44.450Z,4.43
2019-03-12T04:55:16.657Z,4.17
2019-03-12T04:57:45.142Z,4.77
2019-03-12T05:00:16.650Z,4.10
2019-03-12T05:02:45.395Z,4.50
2019-03-12T05:05:13.971Z,3.93
2019-03-12T05:07:42.394Z,4.70
2019-03-12T05:10:15.980Z,4.47
2019-03-12T05:12:44.414Z,5.20
2019-03-12T05:15:16.883Z,4.70
2019-03-12T05:17:45.963Z,4.57
2019-03-12T05:20:15.679Z,4.60
2019-03-12T05:22:44.176Z,4.27
2019-03-12T05:25:13.851Z,5.90
2019-03-12T05:27:42.718Z,5.97
2019-03-12T05:30:14.488Z,4.40
2019-03-12T05:32:43.164Z,4.63
2019-03-12T05:35:11.611Z,5.00
2019-03-12T05:37:40.039Z,4.80
2019-03-12T05:40:10.607Z,4.23
2019-03-12T05:42:39.103Z,4.90
2019-03-12T05:45:12.737Z,3.83
2019-03-12T05:47:41.162Z,4.50
2019-03-12T05:50:20.898Z,3.70
2019-03-12T05:52:49.717Z,3.73
2019-03-12T05:55:18.551Z,3.70
2019-03-12T05:57:46.987Z,4.20
2019-03-12T06:00:20.681Z,3.87
2019-03-12T06:02:49.099Z,3.93
2019-03-12T06:05:17.614Z,4.00
2019-03-12T06:07:46.043Z,3.70
2019-03-12T06:10:15.723Z,4.43
2019-03-12T06:12:44.147Z,3.40
2019-03-12T06:15:14.219Z,4.43
2019-03-12T06:17:42.895Z,4.03
2019-03-12T06:20:15.201Z,3.47
2019-03-12T06:22:43.728Z,3.90
2019-03-12T06:25:13.631Z,3.00
2019-03-12T06:27:42.050Z,4.40
2019-03-12T06:30:13.297Z,3.57
2019-03-12T06:32:46.057Z,4.53
2019-03-12T06:35:16.126Z,4.60
2019-03-12T06:37:58.180Z,4.63
2019-03-12T06:40:37.199Z,3.90
2019-03-12T06:43:12.972Z,4.00
2019-03-12T06:45:58.911Z,4.83
2019-03-12T06:48:38.070Z,4.00
2019-03-12T06:51:08.159Z,4.40
2019-03-12T06:53:43.946Z,3.70
2019-03-12T06:56:14.278Z,4.77
2019-03-12T06:58:56.382Z,3.90
2019-03-12T07:01:32.404Z,3.70
2019-03-12T07:04:02.479Z,3.10
2019-03-12T07:06:41.580Z,3.90
2019-03-12T07:09:14.583Z,3.97
2019-03-12T07:11:44.663Z,4.30
2019-03-12T07:14:22.679Z,3.40
2019-03-12T07:16:58.431Z,3.47
2019-03-12T07:19:40.658Z,3.20
2019-03-12T07:22:16.706Z,4.10
2019-03-12T07:24:52.299Z,3.30
2019-03-12T07:27:22.358Z,3.60
2019-03-12T07:30:03.977Z,3.90
2019-03-12T07:32:39.610Z,3.37
2019-03-12T07:35:25.924Z,2.97
2019-03-12T07:37:58.690Z,3.20
2019-03-12T07:40:28.779Z,3.43
2019-03-12T07:42:58.839Z,3.20
2019-03-12T07:45:28.918Z,3.03
2019-03-12T07:48:01.636Z,3.57
2019-03-12T07:50:34.823Z,3.00
2019-03-12T07:53:04.966Z,3.00
2019-03-12T07:55:51.283Z,2.50
2019-03-12T07:58:35.214Z,2.20
2019-03-12T08:00:58.754Z,3.03
2019-03-12T08:03:44.789Z,2.70
2019-03-12T08:06:23.515Z,3.40
2019-03-12T08:08:53.575Z,3.17
2019-03-12T08:11:23.934Z,3.00
2019-03-12T08:13:54.431Z,2.87
2019-03-12T08:16:32.915Z,3.70
2019-03-12T08:19:02.997Z,3.10
2019-03-12T08:21:36.003Z,2.53
2019-03-12T08:24:13.745Z,2.60
2019-03-12T08:26:49.785Z,2.73
2019-03-12T08:29:31.550Z,2.93
2019-03-12T08:32:04.348Z,2.50
2019-03-12T08:34:49.299Z,2.87
2019-03-12T08:37:22.083Z,2.70
2019-03-12T08:39:55.418Z,2.90
2019-03-12T08:42:37.187Z,2.93
2019-03-12T08:45:11.043Z,2.70
2019-03-12T08:47:42.026Z,3.37
2019-03-12T08:50:28.422Z,2.97
2019-03-12T08:53:00.883Z,2.87
2019-03-12T08:55:45.839Z,2.63
2019-03-12T08:58:16.174Z,2.93
2019-03-12T09:00:46.281Z,3.00
2019-03-12T09:03:19.339Z,2.70
2019-03-12T09:06:05.759Z,2.50
2019-03-12T09:08:52.074Z,2.00
2019-03-12T09:11:37.888Z,2.17
2019-03-12T09:14:10.927Z,2.50
2019-03-12T09:16:49.615Z,2.73
2019-03-12T09:19:22.524Z,2.50
2019-03-12T09:21:58.404Z,2.40
2019-03-12T09:24:34.039Z,2.20
2019-03-12T09:27:19.963Z,2.30
2019-03-12T09:29:53.247Z,3.13
2019-03-12T09:32:35.031Z,2.70
2019-03-12T09:35:05.351Z,2.50
2019-03-12T09:37:35.422Z,2.70
2019-03-12T09:40:22.689Z,2.60
2019-03-12T09:43:04.767Z,2.40
2019-03-12T09:45:34.849Z,2.90
2019-03-12T09:48:04.966Z,2.33
2019-03-12T09:50:35.026Z,2.10
2019-03-12T09:53:08.307Z,2.50
2019-03-12T09:55:47.067Z,2.90
2019-03-12T09:58:23.083Z,2.80
2019-03-12T10:00:55.851Z,2.50
2019-03-12T10:03:31.867Z,2.63
2019-03-12T10:06:10.971Z,2.10
2019-03-12T10:08:41.052Z,2.80
2019-03-12T10:11:11.122Z,2.40
2019-03-12T10:13:41.271Z,2.87
2019-03-12T10:16:27.619Z,2.37
2019-03-12T10:19:03.814Z,2.57
2019-03-12T10:21:36.820Z,2.77
2019-03-12T10:24:12.396Z,2.60
2019-03-12T10:26:45.675Z,2.20
2019-03-12T10:29:31.978Z,2.20
2019-03-12T10:32:02.328Z,2.00
2019-03-12T10:34:47.776Z,2.00
2019-03-12T10:37:17.864Z,1.77
2019-03-12T10:39:58.091Z,2.57
2019-03-12T10:42:44.264Z,2.23
2019-03-12T10:45:26.557Z,2.20
2019-03-12T10:47:56.722Z,1.90
2019-03-12T10:50:25.170Z,2.30
2019-03-12T10:52:53.730Z,1.87
2019-03-12T10:55:22.234Z,1.90
2019-03-12T10:57:50.671Z,2.33
2019-03-12T11:00:19.805Z,2.80
2019-03-12T11:02:48.245Z,1.73
2019-03-12T11:05:18.080Z,2.20
2019-03-12T11:07:46.698Z,2.37
2019-03-12T11:10:16.473Z,2.73
2019-03-12T11:12:45.047Z,2.73
2019-03-12T11:15:15.028Z,1.40
2019-03-12T11:17:49.404Z,2.27
2019-03-12T11:20:24.394Z,1.70
2019-03-12T11:22:53.143Z,1.60
2019-03-12T11:25:27.231Z,1.90
2019-03-12T11:27:52.071Z,1.60
2019-03-12T11:30:20.835Z,1.23
2019-03-12T11:32:49.655Z,1.93
2019-03-12T11:35:18.187Z,2.00
2019-03-12T11:37:46.689Z,1.67
2019-03-12T11:40:17.545Z,1.70
2019-03-12T11:42:46.397Z,2.10
2019-03-12T11:45:18.579Z,1.57
2019-03-12T11:47:45.532Z,1.20
2019-03-12T11:50:21.195Z,1.73
2019-03-12T11:52:56.446Z,1.90
2019-03-12T11:55:20.031Z,1.70
2019-03-12T11:57:48.739Z,1.67
2019-03-12T12:00:23.935Z,1.40
2019-03-12T12:02:59.891Z,1.70
2019-03-12T12:05:22.632Z,1.90
2019-03-12T12:07:51.347Z,1.93
2019-03-12T12:10:20.144Z,1.97
2019-03-12T12:12:48.703Z,1.30
2019-03-12T12:15:17.220Z,1.30
2019-03-12T12:17:45.800Z,1.80
2019-03-12T12:20:28.700Z,2.63
2019-03-12T12:22:47.139Z,3.10
2019-03-12T12:25:19.843Z,2.30
2019-03-12T12:27:48.273Z,1.97
2019-03-12T12:30:20.948Z,1.67
2019-03-12T12:32:49.466Z,2.10
2019-03-12T12:35:18.166Z,1.90
2019-03-12T12:37:46.586Z,2.27
2019-03-12T12:40:16.666Z,2.13
2019-03-12T12:42:45.105Z,2.40
2019-03-12T12:45:19.226Z,2.70
2019-03-12T12:47:47.715Z,2.20
2019-03-12T12:50:16.606Z,1.97
2019-03-12T12:52:45.052Z,2.00
2019-03-12T12:55:14.525Z,2.57
2019-03-12T12:57:42.950Z,1.87
2019-03-12T13:00:14.763Z,2.00
2019-03-12T13:02:43.378Z,1.50
2019-03-12T13:05:11.889Z,2.13
2019-03-12T13:07:40.395Z,1.70
2019-03-12T13:10:11.740Z,1.83
2019-03-12T13:12:40.434Z,1.87
2019-03-12T13:15:11.028Z,1.77
2019-03-12T13:17:39.784Z,1.97
2019-03-12T13:20:09.978Z,1.57
2019-03-12T13:22:38.440Z,1.87
2019-03-12T13:25:10.279Z,1.40
2019-03-12T13:27:42.467Z,1.73
2019-03-12T13:30:20.837Z,1.73
2019-03-12T13:32:49.350Z,1.70
2019-03-12T13:35:18.900Z,1.80
2019-03-12T13:37:48.256Z,1.97
2019-03-12T13:40:22.290Z,1.23
2019-03-12T13:42:50.877Z,1.83
2019-03-12T13:45:28.265Z,1.50
2019-03-12T13:47:57.105Z,1.70
2019-03-12T13:50:26.090Z,1.33
2019-03-12T13:52:54.671Z,1.60
2019-03-12T13:55:23.462Z,1.70
2019-03-12T13:57:51.951Z,1.33
2019-03-12T14:00:24.610Z,1.50
2019-03-12T14:02:53.621Z,1.20
2019-03-12T14:05:22.208Z,1.43
2019-03-12T14:07:50.917Z,1.90
2019-03-12T14:10:23.672Z,1.47
2019-03-12T14:12:53.312Z,1.63
2019-03-12T14:15:32.292Z,1.50
2019-03-12T14:18:00.851Z,1.53
2019-03-12T14:21:04.817Z,1.80
2019-03-12T14:23:54.585Z,1.57
2019-03-12T14:26:23.030Z,1.97
2019-03-12T14:28:52.717Z,1.60
2019-03-12T14:31:21.683Z,1.70
2019-03-12T14:33:50.255Z,1.70
2019-03-12T14:36:18.699Z,1.70
2019-03-12T14:38:47.122Z,1.30
2019-03-12T14:41:15.649Z,1.43
2019-03-12T14:43:44.131Z,1.90
2019-03-12T14:46:12.799Z,1.40
2019-03-12T14:48:52.111Z,1.27
2019-03-12T14:51:29.262Z,1.40
2019-03-12T14:54:09.039Z,1.90
2019-03-12T14:56:37.486Z,1.87
2019-03-12T14:59:06.105Z,2.50
2019-03-12T15:01:34.611Z,1.70
2019-03-12T15:04:03.053Z,1.47
2019-03-12T15:06:31.933Z,1.80
2019-03-12T15:09:00.424Z,1.43
2019-03-12T15:11:29.147Z,1.63
2019-03-12T15:13:57.574Z,1.60
2019-03-12T15:16:26.088Z,1.70
2019-03-12T15:18:54.515Z,1.50
2019-03-12T15:21:22.971Z,2.10
2019-03-12T15:23:51.398Z,1.60
2019-03-12T15:26:19.843Z,1.40
2019-03-12T15:28:48.275Z,2.33
2019-03-12T15:31:16.715Z,1.53
2019-03-12T15:33:45.214Z,1.63
2019-03-12T15:36:13.927Z,1.50
2019-03-12T15:38:42.360Z,1.60
2019-03-12T15:41:11.122Z,1.80
2019-03-12T15:43:39.552Z,1.90
2019-03-12T15:46:08.247Z,1.50
2019-03-12T15:48:37.106Z,1.43
2019-03-12T15:51:05.632Z,1.50
2019-03-12T15:53:34.122Z,1.40
2019-03-12T15:56:02.839Z,1.23
2019-03-12T15:58:31.526Z,1.33
2019-03-12T16:01:02.498Z,1.80
2019-03-12T16:03:30.396Z,1.97
2019-03-12T16:05:58.862Z,2.37
2019-03-12T16:08:27.538Z,1.50
2019-03-12T16:10:58.208Z,1.70
2019-03-12T16:13:26.248Z,1.20
2019-03-12T16:15:54.738Z,1.40
2019-03-12T16:18:23.171Z,1.53
2019-03-12T16:20:51.778Z,1.93
2019-03-12T16:23:20.232Z,1.00
2019-03-12T16:25:48.691Z,1.43
2019-03-12T16:28:17.375Z,1.70
2019-03-12T16:30:45.814Z,1.47
2019-03-12T16:33:14.246Z,1.07
2019-03-12T16:35:42.694Z,1.50
2019-03-12T16:38:11.124Z,1.20
2019-03-12T16:40:39.573Z,1.63
2019-03-12T16:43:08.263Z,1.57
2019-03-12T16:45:36.692Z,1.23
2019-03-12T16:48:05.238Z,1.10
2019-03-12T16:50:33.682Z,1.43
2019-03-12T16:53:02.111Z,1.60
2019-03-12T16:55:30.606Z,1.43
2019-03-12T16:57:59.038Z,1.00
2019-03-12T17:00:27.511Z,1.30
2019-03-12T17:02:56.027Z,1.33
2019-03-12T17:05:26.296Z,1.10
2019-03-12T17:07:55.322Z,1.30
2019-03-12T17:10:24.031Z,1.20
2019-03-12T17:12:52.451Z,1.80
2019-03-12T17:15:28.240Z,1.30
2019-03-12T17:17:56.662Z,1.30
2019-03-12T17:20:25.106Z,1.30
2019-03-12T17:22:53.795Z,1.27
2019-03-12T17:25:22.223Z,1.90
2019-03-12T17:27:51.868Z,1.30
2019-03-12T17:30:22.011Z,1.40
2019-03-12T17:32:50.566Z,2.60
2019-03-12T17:35:30.603Z,1.50
2019-03-12T17:37:59.041Z,1.50
2019-03-12T17:40:27.475Z,1.20
2019-03-12T17:42:55.987Z,1.70
2019-03-12T17:45:24.413Z,1.30
2019-03-12T17:47:52.846Z,1.40
2019-03-12T17:50:21.288Z,1.40
2019-03-12T17:52:49.793Z,1.47
2019-03-12T17:55:18.295Z,1.50
2019-03-12T17:57:46.857Z,1.30
2019-03-12T18:00:23.545Z,1.50
2019-03-12T18:02:52.001Z,1.57
2019-03-12T18:05:20.629Z,1.80
2019-03-12T18:07:49.207Z,1.60
2019-03-12T18:10:18.280Z,1.43
2019-03-12T18:12:46.804Z,1.20
2019-03-12T18:15:19.827Z,1.37
2019-03-12T18:17:48.951Z,1.20
2019-03-12T18:20:21.111Z,1.73
2019-03-12T18:22:49.601Z,1.57
2019-03-12T18:25:29.319Z,1.30
2019-03-12T18:27:57.912Z,1.40
2019-03-12T18:30:26.431Z,1.70
2019-03-12T18:32:54.952Z,1.53
2019-03-12T18:35:23.383Z,1.30
2019-03-12T18:37:51.828Z,1.50
2019-03-12T18:40:26.629Z,1.30
2019-03-12T18:42:55.366Z,1.57
2019-03-12T18:45:29.776Z,1.43
2019-03-12T18:47:58.293Z,1.20
2019-03-12T18:50:26.749Z,1.70
2019-03-12T18:52:55.255Z,1.30
2019-03-12T18:55:32.831Z,1.53
2019-03-12T18:58:01.737Z,1.37
2019-03-12T19:00:30.617Z,1.60
2019-03-12T19:02:59.375Z,1.40
2019-03-12T19:05:28.459Z,1.40
2019-03-12T19:07:57.065Z,1.30
2019-03-12T19:10:25.570Z,1.50
2019-03-12T19:12:54.089Z,1.40
2019-03-12T19:15:22.658Z,1.80
2019-03-12T19:17:51.091Z,1.70
2019-03-12T19:20:20.170Z,1.40
2019-03-12T19:22:48.951Z,1.37
2019-03-12T19:25:21.743Z,1.50
2019-03-12T19:27:59.958Z,1.80
2019-03-12T19:30:20.768Z,1.83
2019-03-12T19:32:56.982Z,2.37
2019-03-12T19:35:27.038Z,1.80
2019-03-12T19:37:56.295Z,1.50
2019-03-12T19:40:36.289Z,1.73
2019-03-12T19:43:04.859Z,2.00
2019-03-12T19:45:33.545Z,2.90
2019-03-12T19:48:02.249Z,2.40
2019-03-12T19:50:30.734Z,1.77
2019-03-12T19:52:59.178Z,1.80
2019-03-12T19:55:54.458Z,1.80
2019-03-12T19:58:22.907Z,1.53
2019-03-12T20:00:51.830Z,2.07
2019-03-12T20:03:20.294Z,1.60
2019-03-12T20:05:48.711Z,1.87
2019-03-12T20:08:17.159Z,1.70
2019-03-12T20:11:12.550Z,1.60
2019-03-12T20:14:04.173Z,2.33
2019-03-12T20:17:08.606Z,2.70
2019-03-12T20:19:47.855Z,1.70
2019-03-12T20:22:50.630Z,2.30
2019-03-12T20:25:37.131Z,3.10
2019-03-12T20:28:38.694Z,2.30
2019-03-12T20:31:26.471Z,1.40
2019-03-12T20:34:30.886Z,1.80
2019-03-12T20:37:23.548Z,1.73
2019-03-12T20:40:11.272Z,1.50
2019-03-12T20:43:00.270Z,1.70
2019-03-12T20:46:00.679Z,1.80
2019-03-12T20:48:41.098Z,1.77
2019-03-12T20:51:30.180Z,1.80
2019-03-12T20:54:09.843Z,2.07
2019-03-12T20:57:07.009Z,2.60
2019-03-12T21:00:06.684Z,1.67
2019-03-12T21:02:40.916Z,1.60
2019-03-12T21:05:15.254Z,1.73
2019-03-12T21:08:11.880Z,1.90
2019-03-12T21:11:05.700Z,1.70
2019-03-12T21:13:57.817Z,2.00
2019-03-12T21:17:02.139Z,2.70
2019-03-12T21:19:50.143Z,2.20
2019-03-12T21:22:27.831Z,1.73
2019-03-12T21:24:59.335Z,1.10
2019-03-12T21:27:47.434Z,1.00
2019-03-12T21:30:15.055Z,0.50
2019-03-12T21:32:43.564Z,0.80
2019-03-12T21:35:12.008Z,0.80
2019-03-12T21:37:40.679Z,0.67
2019-03-12T21:40:10.311Z,1.00
2019-03-12T21:42:39.015Z,0.73
2019-03-12T21:45:10.827Z,1.10
2019-03-12T21:47:39.312Z,0.90
2019-03-12T21:50:09.782Z,1.00
2019-03-12T21:52:38.279Z,1.20
2019-03-12T21:55:12.597Z,1.33
2019-03-12T21:57:41.123Z,1.13
2019-03-12T22:00:12.951Z,1.30
2019-03-12T22:02:41.371Z,1.30
2019-03-12T22:05:10.312Z,1.63
2019-03-12T22:07:39.043Z,1.70
2019-03-12T22:10:10.251Z,2.30
2019-03-12T22:12:38.664Z,2.70
2019-03-12T22:15:10.695Z,3.53
2019-03-12T22:17:39.127Z,3.40
2019-03-12T22:20:15.339Z,3.70
2019-03-12T22:22:54.129Z,3.90
2019-03-12T22:25:22.566Z,3.57
2019-03-12T22:27:50.987Z,4.17
2019-03-12T22:30:24.657Z,3.80
2019-03-12T22:32:53.342Z,4.17
2019-03-12T22:35:22.086Z,4.47
2019-03-12T22:37:50.783Z,5.00
2019-03-12T22:40:19.234Z,4.13
2019-03-12T22:42:47.653Z,5.00
2019-03-12T22:45:16.580Z,5.23
2019-03-12T22:47:45.291Z,5.00
2019-03-12T22:50:15.783Z,5.10
2019-03-12T22:52:44.214Z,4.70
2019-03-12T22:55:13.486Z,4.40
2019-03-12T22:57:42.158Z,4.77
2019-03-12T23:00:21.191Z,4.67
2019-03-12T23:02:49.678Z,4.20
2019-03-12T23:05:18.380Z,3.40
2019-03-12T23:07:46.797Z,4.60
2019-03-12T23:10:16.543Z,4.37
2019-03-12T23:12:45.219Z,3.87
2019-03-12T23:15:18.352Z,3.83
2019-03-12T23:17:47.216Z,4.30
2019-03-12T23:20:19.224Z,4.23
2019-03-12T23:22:47.835Z,4.80
2019-03-12T23:25:16.588Z,3.87
2019-03-12T23:27:44.999Z,3.70
2019-03-12T23:30:15.741Z,4.00
2019-03-12T23:32:44.494Z,3.30
2019-03-12T23:35:13.019Z,4.00
2019-03-12T23:37:41.779Z,3.37
2019-03-12T23:40:16.025Z,4.10
2019-03-12T23:42:44.706Z,3.70
2019-03-12T23:45:15.768Z,3.27
2019-03-12T23:47:44.511Z,3.30
2019-03-12T23:50:14.993Z,3.50
2019-03-12T23:52:43.574Z,3.30
2019-03-12T23:55:13.515Z,3.43
2019-03-12T23:57:42.204Z,4.07
